createdAt,value
2018-04-18T00:00:38.890Z,15.20
2018-04-18T00:03:07.141Z,15.30
2018-04-18T00:08:06.022Z,15.20
2018-04-18T00:10:34.264Z,15.10
2018-04-18T00:13:02.573Z,15.10
2018-04-18T00:15:31.576Z,15.10
2018-04-18T00:17:59.826Z,15.10
2018-04-18T00:20:31.343Z,15.00
2018-04-18T00:22:59.986Z,15.00
2018-04-18T00:25:28.224Z,15.00
2018-04-18T00:27:57.084Z,15.00
2018-04-18T00:30:26.095Z,14.90
2018-04-18T00:32:55.099Z,14.90
2018-04-18T00:35:23.575Z,14.80
2018-04-18T00:37:52.586Z,14.90
2018-04-18T00:40:21.583Z,14.80
2018-04-18T00:42:50.672Z,14.90
2018-04-18T00:45:19.680Z,14.80
2018-04-18T00:50:17.750Z,14.70
2018-04-18T00:52:45.987Z,14.80
2018-04-18T00:55:14.227Z,14.90
2018-04-18T00:57:43.331Z,14.80
2018-04-18T01:00:11.580Z,14.80
2018-04-18T01:02:39.823Z,14.70
2018-04-18T01:05:08.104Z,14.70
2018-04-18T01:07:36.356Z,14.60
2018-04-18T01:10:06.095Z,14.50
2018-04-18T01:15:04.236Z,14.50
2018-04-18T01:17:33.246Z,14.50
2018-04-18T01:20:04.822Z,14.50
2018-04-18T01:22:34.578Z,14.40
2018-04-18T01:25:02.812Z,14.50
2018-04-18T01:27:31.129Z,14.50
2018-04-18T01:29:59.768Z,14.40
2018-04-18T01:32:28.823Z,14.50
2018-04-18T01:34:57.118Z,14.40
2018-04-18T01:37:27.719Z,14.40
2018-04-18T01:39:55.954Z,14.40
2018-04-18T01:42:25.647Z,14.40
2018-04-18T01:44:53.896Z,14.40
2018-04-18T01:49:52.768Z,14.30
2018-04-18T01:52:21.773Z,14.30
2018-04-18T01:54:50.015Z,14.30
2018-04-18T01:57:18.295Z,14.30
2018-04-18T01:59:46.534Z,14.20
2018-04-18T02:02:14.784Z,14.20
2018-04-18T02:04:44.930Z,14.20
2018-04-18T02:07:13.179Z,14.20
2018-04-18T02:09:41.414Z,14.20
2018-04-18T02:12:10.887Z,14.20
2018-04-18T02:14:39.132Z,14.20
2018-04-18T02:17:07.362Z,14.10
2018-04-18T02:19:36.434Z,14.10
2018-04-18T02:22:05.071Z,14.10
2018-04-18T02:24:33.312Z,14.20
2018-04-18T02:27:01.877Z,14.10
2018-04-18T02:29:30.118Z,14.10
2018-04-18T02:31:58.360Z,14.10
2018-04-18T02:34:26.644Z,14.10
2018-04-18T02:36:54.880Z,14.10
2018-04-18T02:39:24.626Z,14.10
2018-04-18T02:41:54.343Z,14.10
2018-04-18T02:44:22.574Z,14.00
2018-04-18T02:46:52.322Z,14.00
2018-04-18T02:49:23.683Z,14.00
2018-04-18T02:51:52.539Z,14.00
2018-04-18T02:54:20.787Z,14.00
2018-04-18T02:59:19.435Z,13.90
2018-04-18T03:01:49.159Z,13.90
2018-04-18T03:04:17.470Z,13.90
2018-04-18T03:06:47.074Z,13.90
2018-04-18T03:09:15.311Z,13.90
2018-04-18T03:11:44.539Z,13.80
2018-04-18T03:14:13.554Z,13.80
2018-04-18T03:16:42.562Z,13.80
2018-04-18T03:19:10.996Z,13.80
2018-04-18T03:24:08.694Z,13.80
2018-04-18T03:26:38.254Z,13.70
2018-04-18T03:29:06.451Z,13.70
2018-04-18T03:31:36.194Z,13.70
2018-04-18T03:34:04.907Z,13.70
2018-04-18T03:36:34.647Z,13.70
2018-04-18T03:39:02.890Z,13.70
2018-04-18T03:41:31.170Z,13.70
2018-04-18T03:43:59.406Z,13.70
2018-04-18T03:46:27.643Z,13.70
2018-04-18T03:48:57.533Z,13.70
2018-04-18T03:51:25.767Z,13.60
2018-04-18T03:53:54.743Z,13.60
2018-04-18T03:56:23.443Z,13.60
2018-04-18T04:01:21.559Z,13.50
2018-04-18T04:03:53.448Z,13.50
2018-04-18T04:06:22.079Z,13.50
2018-04-18T04:08:50.318Z,13.50
2018-04-18T04:11:18.767Z,13.40
2018-04-18T04:13:47.003Z,13.40
2018-04-18T04:19:27.556Z,13.40
2018-04-18T04:22:07.997Z,13.30
2018-04-18T04:24:39.290Z,13.30
2018-04-18T04:27:07.528Z,13.30
2018-04-18T04:29:35.795Z,13.20
2018-04-18T04:32:04.030Z,13.20
2018-04-18T04:34:32.272Z,13.20
2018-04-18T04:37:01.760Z,12.90
2018-04-18T04:39:29.937Z,13.20
2018-04-18T04:41:58.175Z,13.20
2018-04-18T04:44:26.483Z,13.10
2018-04-18T04:46:54.723Z,13.10
2018-04-18T04:49:22.963Z,13.10
2018-04-18T04:51:52.011Z,13.10
2018-04-18T04:54:21.191Z,13.10
2018-04-18T04:56:50.193Z,13.10
2018-04-18T04:59:18.682Z,13.10
2018-04-18T05:01:46.931Z,13.20
2018-04-18T05:04:15.156Z,13.20
2018-04-18T05:06:43.734Z,13.20
2018-04-18T05:09:12.735Z,13.30
2018-04-18T05:11:40.978Z,13.30
2018-04-18T05:14:09.456Z,13.30
2018-04-18T05:16:37.693Z,13.40
2018-04-18T05:19:05.923Z,13.40
2018-04-18T05:21:34.526Z,13.40
2018-04-18T05:24:03.166Z,13.50
2018-04-18T05:26:31.414Z,13.50
2018-04-18T05:28:59.708Z,13.60
2018-04-18T05:31:27.949Z,13.60
2018-04-18T05:33:56.187Z,13.60
2018-04-18T05:36:24.459Z,13.70
2018-04-18T05:38:52.703Z,13.80
2018-04-18T05:41:20.948Z,13.80
2018-04-18T05:43:49.227Z,13.90
2018-04-18T05:46:18.231Z,14.00
2018-04-18T05:48:46.467Z,14.00
2018-04-18T05:51:14.750Z,14.10
2018-04-18T05:53:43.758Z,14.20
2018-04-18T05:56:11.994Z,14.30
2018-04-18T05:58:42.439Z,14.40
2018-04-18T06:03:40.147Z,14.60
2018-04-18T06:06:08.481Z,14.70
2018-04-18T06:08:38.178Z,14.80
2018-04-18T06:13:36.931Z,15.10
2018-04-18T06:16:06.302Z,15.20
2018-04-18T06:18:34.574Z,15.40
2018-04-18T06:21:03.579Z,15.50
2018-04-18T06:23:31.821Z,15.70
2018-04-18T06:26:00.098Z,15.80
2018-04-18T06:28:29.107Z,15.90
2018-04-18T06:30:57.351Z,16.10
2018-04-18T06:33:25.635Z,16.20
2018-04-18T06:35:54.643Z,16.30
2018-04-18T06:38:23.650Z,16.50
2018-04-18T06:40:51.929Z,16.70
2018-04-18T06:43:21.431Z,16.80
2018-04-18T06:45:49.685Z,17.00
2018-04-18T06:48:19.089Z,17.20
2018-04-18T06:50:47.334Z,17.40
2018-04-18T06:53:16.329Z,17.60
2018-04-18T06:55:45.471Z,17.80
2018-04-18T06:58:14.475Z,18.00
2018-04-18T07:00:43.851Z,18.20
2018-04-18T07:03:12.126Z,18.30
2018-04-18T07:05:40.372Z,18.50
2018-04-18T07:08:08.600Z,18.70
2018-04-18T07:10:36.891Z,18.80
2018-04-18T07:13:05.126Z,19.00
2018-04-18T07:18:02.874Z,19.20
2018-04-18T07:20:31.107Z,19.40
2018-04-18T07:22:59.357Z,19.50
2018-04-18T07:25:28.767Z,19.70
2018-04-18T07:27:57.007Z,19.90
2018-04-18T07:32:55.151Z,20.20
2018-04-18T07:35:23.389Z,20.40
2018-04-18T07:37:51.631Z,20.60
2018-04-18T07:40:19.939Z,20.70
2018-04-18T07:42:48.171Z,20.90
2018-04-18T07:45:16.411Z,21.00
2018-04-18T07:47:44.687Z,21.10
2018-04-18T07:50:12.927Z,21.10
2018-04-18T07:52:41.935Z,21.30
2018-04-18T07:55:10.222Z,21.40
2018-04-18T07:57:38.860Z,21.60
2018-04-18T08:00:08.234Z,21.80
2018-04-18T08:02:36.519Z,22.00
2018-04-18T08:05:04.755Z,22.10
2018-04-18T08:07:32.994Z,22.30
2018-04-18T08:10:02.035Z,22.50
2018-04-18T08:12:31.051Z,22.50
2018-04-18T08:15:00.040Z,22.70
2018-04-18T08:17:29.066Z,22.80
2018-04-18T08:19:58.079Z,22.90
2018-04-18T08:22:27.496Z,23.00
2018-04-18T08:24:55.739Z,23.10
2018-04-18T08:27:23.978Z,23.30
2018-04-18T08:29:52.252Z,23.50
2018-04-18T08:32:20.488Z,23.60
2018-04-18T08:37:18.228Z,23.90
2018-04-18T08:39:46.467Z,24.10
2018-04-18T08:42:14.744Z,24.20
2018-04-18T08:44:43.371Z,24.40
2018-04-18T08:47:12.383Z,24.60
2018-04-18T08:49:41.434Z,24.80
2018-04-18T08:52:10.796Z,25.00
2018-04-18T08:54:39.022Z,25.30
2018-04-18T08:57:08.050Z,25.50
2018-04-18T08:59:37.047Z,25.90
2018-04-18T09:02:05.299Z,26.40
2018-04-18T09:04:33.552Z,27.10
2018-04-18T09:12:01.490Z,30.60
2018-04-18T09:14:29.728Z,32.10
2018-04-18T09:16:58.003Z,33.80
2018-04-18T09:19:26.231Z,35.20
2018-04-18T09:21:54.468Z,36.60
2018-04-18T09:24:22.755Z,37.50
2018-04-18T09:26:52.497Z,38.10
2018-04-18T09:31:50.627Z,39.20
2018-04-18T09:34:19.620Z,39.70
2018-04-18T09:39:17.363Z,40.50
2018-04-18T09:41:46.727Z,41.00
2018-04-18T09:44:16.146Z,41.10
2018-04-18T09:46:45.138Z,41.20
2018-04-18T09:49:14.163Z,41.20
2018-04-18T09:51:43.568Z,41.20
2018-04-18T09:54:11.801Z,41.30
2018-04-18T09:56:41.534Z,40.90
2018-04-18T09:59:10.562Z,41.00
2018-04-18T10:06:40.084Z,41.30
2018-04-18T10:09:08.312Z,41.30
2018-04-18T10:11:36.584Z,41.30
2018-04-18T10:14:04.816Z,41.10
2018-04-18T10:16:33.043Z,41.00
2018-04-18T10:19:01.308Z,40.60
2018-04-18T10:21:29.544Z,40.20
2018-04-18T10:23:57.771Z,39.70
2018-04-18T10:26:26.828Z,39.10
2018-04-18T10:28:55.063Z,38.60
2018-04-18T10:31:23.299Z,38.30
2018-04-18T10:33:52.351Z,37.80
2018-04-18T10:36:21.352Z,37.10
2018-04-18T10:38:49.570Z,36.60
2018-04-18T10:41:17.847Z,36.10
2018-04-18T10:43:46.075Z,35.80
2018-04-18T10:46:14.342Z,35.60
2018-04-18T10:48:44.083Z,35.30
2018-04-18T10:51:13.119Z,34.90
2018-04-18T10:53:42.152Z,34.70
2018-04-18T10:56:10.383Z,34.60
2018-04-18T10:58:38.672Z,34.30
2018-04-18T11:01:08.390Z,34.00
2018-04-18T11:03:36.627Z,33.80
2018-04-18T11:06:04.851Z,33.60
2018-04-18T11:08:33.116Z,33.40
2018-04-18T11:11:01.343Z,33.20
2018-04-18T11:13:31.097Z,32.90
2018-04-18T11:18:29.248Z,32.50
2018-04-18T11:20:58.252Z,32.30
2018-04-18T11:25:55.979Z,32.00
2018-04-18T11:28:24.203Z,31.90
2018-04-18T11:30:53.984Z,31.80
2018-04-18T11:33:22.224Z,31.80
2018-04-18T11:35:51.588Z,31.70
2018-04-18T11:38:20.256Z,31.60
2018-04-18T11:40:49.255Z,31.50
2018-04-18T11:43:19.002Z,31.30
2018-04-18T11:45:47.266Z,31.40
2018-04-18T11:48:15.503Z,31.40
2018-04-18T11:53:14.784Z,31.50
2018-04-18T11:55:43.787Z,31.50
2018-04-18T11:58:12.032Z,31.50
2018-04-18T12:03:09.755Z,31.60
2018-04-18T12:05:39.491Z,31.60
2018-04-18T12:08:08.527Z,31.70
2018-04-18T12:10:37.516Z,31.70
2018-04-18T12:13:06.519Z,31.60
2018-04-18T12:15:34.791Z,31.60
2018-04-18T12:18:03.796Z,31.60
2018-04-18T12:20:32.032Z,31.70
2018-04-18T12:23:00.330Z,31.80
2018-04-18T12:25:30.072Z,31.80
2018-04-18T12:27:58.298Z,32.00
2018-04-18T12:30:26.972Z,32.00
2018-04-18T12:32:55.209Z,31.90
2018-04-18T12:40:22.816Z,32.00
2018-04-18T12:42:51.047Z,32.00
2018-04-18T12:45:19.315Z,31.90
2018-04-18T12:47:47.547Z,31.80
2018-04-18T12:50:17.287Z,31.90
2018-04-18T12:52:45.560Z,32.00
2018-04-18T12:55:14.067Z,31.90
2018-04-18T12:57:42.307Z,31.80
2018-04-18T13:00:11.771Z,31.70
2018-04-18T13:02:40.011Z,31.60
2018-04-18T13:05:08.243Z,31.50
2018-04-18T13:07:37.286Z,31.30
2018-04-18T13:10:06.286Z,31.10
2018-04-18T13:12:35.303Z,31.00
2018-04-18T13:15:04.735Z,30.90
2018-04-18T13:17:34.487Z,30.70
2018-04-18T13:20:04.256Z,30.60
2018-04-18T13:22:33.631Z,30.50
2018-04-18T13:25:01.854Z,30.30
2018-04-18T13:29:59.595Z,30.00
2018-04-18T13:32:27.836Z,29.80
2018-04-18T13:34:56.144Z,29.60
2018-04-18T13:37:24.375Z,29.50
2018-04-18T13:39:53.747Z,29.40
2018-04-18T13:42:22.048Z,29.30
2018-04-18T13:44:50.282Z,29.10
2018-04-18T13:49:48.783Z,28.90
2018-04-18T13:52:18.535Z,28.80
2018-04-18T13:54:46.780Z,28.70
2018-04-18T13:57:15.106Z,28.70
2018-04-18T13:59:43.347Z,28.60
2018-04-18T14:04:41.087Z,28.50
2018-04-18T14:07:09.318Z,28.40
2018-04-18T14:09:39.062Z,28.40
2018-04-18T14:12:08.086Z,28.40
2018-04-18T14:14:37.090Z,28.30
2018-04-18T14:17:06.142Z,28.20
2018-04-18T14:19:34.383Z,28.20
2018-04-18T14:22:03.385Z,28.10
2018-04-18T14:24:31.652Z,28.00
2018-04-18T14:26:59.887Z,28.00
2018-04-18T14:29:28.163Z,28.00
2018-04-18T14:31:56.436Z,27.90
2018-04-18T14:34:24.639Z,28.00
2018-04-18T14:36:54.049Z,27.90
2018-04-18T14:39:22.290Z,27.80
2018-04-18T14:41:50.528Z,27.70
2018-04-18T14:44:18.856Z,27.60
2018-04-18T14:46:47.095Z,27.60
2018-04-18T14:49:15.341Z,27.70
2018-04-18T14:51:43.617Z,27.70
2018-04-18T14:54:11.851Z,27.60
2018-04-18T14:56:40.097Z,27.50
2018-04-18T14:59:09.171Z,27.50
2018-04-18T15:01:37.407Z,27.50
2018-04-18T15:04:06.407Z,27.40
2018-04-18T15:09:04.144Z,27.30
2018-04-18T15:11:33.185Z,27.20
2018-04-18T15:14:01.864Z,27.20
2018-04-18T15:16:30.866Z,27.20
2018-04-18T15:18:59.107Z,27.10
2018-04-18T15:21:28.155Z,27.00
2018-04-18T15:23:56.391Z,27.00
2018-04-18T15:26:24.630Z,27.00
2018-04-18T15:28:54.422Z,27.00
2018-04-18T15:31:22.664Z,26.90
2018-04-18T15:36:20.783Z,27.00
2018-04-18T15:41:19.244Z,27.00
2018-04-18T15:43:47.510Z,26.90
2018-04-18T15:46:15.756Z,27.00
2018-04-18T15:48:44.002Z,27.00
2018-04-18T15:51:12.268Z,27.00
2018-04-18T15:53:41.641Z,27.00
2018-04-18T15:56:09.876Z,27.00
2018-04-18T15:58:38.158Z,26.90
2018-04-18T16:01:06.412Z,27.00
2018-04-18T16:03:36.157Z,26.90
2018-04-18T16:06:05.210Z,26.90
2018-04-18T16:08:34.202Z,26.90
2018-04-18T16:11:02.431Z,26.90
2018-04-18T16:13:30.707Z,26.80
2018-04-18T16:18:29.519Z,26.80
2018-04-18T16:20:58.577Z,26.80
2018-04-18T16:23:27.571Z,26.80
2018-04-18T16:25:56.932Z,26.70
2018-04-18T16:28:25.955Z,26.80
2018-04-18T16:33:23.683Z,26.70
2018-04-18T16:35:53.414Z,26.70
2018-04-18T16:38:22.459Z,26.70
2018-04-18T16:40:50.686Z,26.60
2018-04-18T16:43:19.680Z,26.60
2018-04-18T16:45:47.955Z,26.60
2018-04-18T16:48:16.950Z,26.50
2018-04-18T16:50:45.193Z,26.60
2018-04-18T16:53:14.591Z,26.50
2018-04-18T16:55:42.815Z,26.40
2018-04-18T16:58:12.551Z,26.40
2018-04-18T17:00:40.839Z,26.40
2018-04-18T17:03:11.978Z,26.30
2018-04-18T17:05:41.003Z,26.30
2018-04-18T17:10:39.095Z,26.20
2018-04-18T17:13:08.143Z,26.20
2018-04-18T17:15:37.147Z,26.20
2018-04-18T17:20:36.438Z,26.10
2018-04-18T17:25:34.119Z,26.00
2018-04-18T17:28:02.374Z,25.90
2018-04-18T17:30:30.604Z,25.90
2018-04-18T17:32:58.827Z,25.90
2018-04-18T17:35:27.567Z,25.80
2018-04-18T17:37:56.182Z,25.70
2018-04-18T17:40:25.182Z,25.70
2018-04-18T17:42:53.450Z,25.60
2018-04-18T17:45:21.671Z,25.50
2018-04-18T17:47:50.667Z,25.40
2018-04-18T17:50:20.832Z,25.30
2018-04-18T17:52:49.061Z,25.20
2018-04-18T17:57:47.182Z,25.00
2018-04-18T18:00:15.435Z,24.90
2018-04-18T18:02:44.414Z,24.80
2018-04-18T18:07:42.218Z,24.50
2018-04-18T18:10:10.446Z,24.40
2018-04-18T18:12:38.736Z,24.30
2018-04-18T18:15:06.962Z,24.20
2018-04-18T18:17:35.956Z,24.20
2018-04-18T18:20:04.415Z,24.10
2018-04-18T18:22:34.139Z,24.10
2018-04-18T18:25:02.371Z,24.00
2018-04-18T18:27:30.639Z,24.00
2018-04-18T18:29:58.858Z,23.90
2018-04-18T18:34:56.977Z,23.60
2018-04-18T18:37:25.207Z,23.50
2018-04-18T18:39:54.938Z,23.30
2018-04-18T18:42:23.209Z,23.20
2018-04-18T18:44:51.427Z,23.10
2018-04-18T18:47:19.665Z,23.00
2018-04-18T18:49:49.570Z,22.90
2018-04-18T18:52:17.747Z,22.80
2018-04-18T18:54:45.991Z,22.70
2018-04-18T18:57:14.431Z,22.60
2018-04-18T18:59:42.672Z,22.60
2018-04-18T19:02:11.306Z,22.50
2018-04-18T19:04:40.344Z,22.50
2018-04-18T19:07:08.584Z,22.40
2018-04-18T19:09:36.832Z,22.40
2018-04-18T19:12:05.509Z,22.30
2018-04-18T19:17:04.710Z,22.20
2018-04-18T19:19:33.759Z,22.20
2018-04-18T19:22:01.998Z,22.10
2018-04-18T19:24:31.015Z,22.10
2018-04-18T19:26:59.306Z,22.00
2018-04-18T19:29:27.547Z,22.00
2018-04-18T19:31:57.502Z,22.00
2018-04-18T19:34:26.562Z,21.90
2018-04-18T19:36:55.575Z,21.90
2018-04-18T19:39:23.819Z,21.90
2018-04-18T19:41:52.112Z,21.80
2018-04-18T19:44:20.342Z,21.80
2018-04-18T19:46:48.586Z,21.70
2018-04-18T19:49:16.900Z,21.70
2018-04-18T19:51:45.135Z,21.70
2018-04-18T19:54:13.371Z,21.60
2018-04-18T19:56:43.031Z,21.60
2018-04-18T19:59:11.287Z,21.50
2018-04-18T20:01:39.512Z,21.50
2018-04-18T20:04:07.800Z,21.50
2018-04-18T20:06:38.243Z,21.40
2018-04-18T20:09:07.276Z,21.40
2018-04-18T20:11:35.549Z,21.40
2018-04-18T20:14:03.795Z,21.30
2018-04-18T20:16:32.062Z,21.30
2018-04-18T20:19:00.298Z,21.20
2018-04-18T20:21:28.574Z,21.20
2018-04-18T20:23:56.820Z,21.20
2018-04-18T20:26:25.816Z,21.10
2018-04-18T20:28:54.094Z,21.10
2018-04-18T20:31:22.339Z,21.00
2018-04-18T20:33:50.580Z,21.00
2018-04-18T20:36:20.378Z,21.00
2018-04-18T20:38:48.628Z,20.90
2018-04-18T20:41:18.370Z,20.90
2018-04-18T20:43:46.651Z,20.90
2018-04-18T20:46:16.023Z,20.90
2018-04-18T20:48:45.031Z,20.80
2018-04-18T20:51:13.303Z,20.80
2018-04-18T20:53:41.540Z,20.70
2018-04-18T20:56:11.319Z,20.70
2018-04-18T20:58:39.556Z,20.60
2018-04-18T21:03:37.721Z,20.60
2018-04-18T21:06:05.963Z,20.60
2018-04-18T21:08:35.850Z,20.50
2018-04-18T21:13:34.011Z,20.50
2018-04-18T21:18:32.148Z,20.50
2018-04-18T21:21:00.387Z,20.40
2018-04-18T21:23:29.388Z,20.30
2018-04-18T21:25:58.428Z,20.30
2018-04-18T21:28:27.435Z,20.30
2018-04-18T21:30:56.819Z,20.30
2018-04-18T21:33:25.100Z,20.30
2018-04-18T21:35:53.344Z,20.30
2018-04-18T21:38:21.583Z,20.20
2018-04-18T21:40:51.370Z,20.20
2018-04-18T21:43:19.614Z,20.20
2018-04-18T21:45:49.351Z,20.20
2018-04-18T21:50:48.611Z,20.10
2018-04-18T21:55:47.887Z,20.20
2018-04-18T21:58:16.882Z,20.20
2018-04-18T22:00:45.123Z,20.10
2018-04-18T22:03:14.167Z,20.10
2018-04-18T22:05:42.403Z,20.00
2018-04-18T22:08:10.634Z,19.90
2018-04-18T22:10:38.915Z,19.90
2018-04-18T22:13:07.160Z,19.80
2018-04-18T22:15:35.400Z,19.80
2018-04-18T22:18:03.666Z,19.70
2018-04-18T22:20:31.909Z,19.70
2018-04-18T22:23:00.144Z,19.60
2018-04-18T22:25:29.916Z,19.60
2018-04-18T22:27:58.159Z,19.60
2018-04-18T22:32:55.896Z,19.60
2018-04-18T22:35:25.635Z,19.50
2018-04-18T22:37:54.695Z,19.50
2018-04-18T22:40:24.075Z,19.40
2018-04-18T22:42:52.319Z,19.40
2018-04-18T22:45:22.109Z,19.30
2018-04-18T22:47:50.340Z,19.30
2018-04-18T22:50:19.340Z,19.20
2018-04-18T22:52:48.383Z,19.10
2018-04-18T22:55:16.614Z,19.10
2018-04-18T23:00:21.427Z,19.00
2018-04-18T23:02:49.435Z,19.00
2018-04-18T23:05:17.674Z,19.00
2018-04-18T23:07:47.444Z,19.00
2018-04-18T23:10:15.683Z,19.00
2018-04-18T23:12:43.952Z,19.00
2018-04-18T23:21:08.680Z,18.90
2018-04-18T23:29:06.617Z,18.80
2018-04-18T23:31:36.360Z,18.80
2018-04-18T23:34:04.639Z,18.80
2018-04-18T23:36:33.648Z,18.70
2018-04-18T23:39:02.646Z,18.70
2018-04-18T23:41:30.934Z,18.70
2018-04-18T23:43:59.180Z,18.70
2018-04-18T23:48:57.743Z,18.60
2018-04-18T23:51:25.927Z,18.60
2018-04-18T23:53:54.192Z,18.60
2018-04-18T23:56:22.422Z,18.60
2018-04-18T23:58:52.186Z,18.60
